Time,TemperatureF,DewpointF,PressureIn,WindDirection,WindDirectionDegrees,WindSpeedMPH,WindSpeedGustMPH,Humidity,HourlyPrecipIn,Conditions,Clouds,dailyrainin,SoftwareType,DateUTC
2013-10-11 00:13:00,64.0,60.0,29.98,SSE,167,0.0,0.0,88,0.00,,,0.00,,2013-10-11 05:13:00,
2013-10-11 00:23:00,64.0,62.0,29.98,SSE,167,0.0,1.0,92,0.00,,,0.00,,2013-10-11 05:23:00,
2013-10-11 00:43:00,64.0,62.0,29.98,SSE,167,0.0,0.0,92,0.00,,,0.00,,2013-10-11 05:43:00,
2013-10-11 00:52:00,64.0,61.0,29.97,SSE,167,0.0,0.0,91,0.00,,,0.00,,2013-10-11 05:52:00,
2013-10-11 01:12:00,63.0,60.0,29.97,SSE,167,0.0,0.0,91,0.00,,,0.00,,2013-10-11 06:12:00,
2013-10-11 01:22:00,63.0,60.0,29.97,SSE,167,0.0,0.0,91,0.00,,,0.00,,2013-10-11 06:22:00,
2013-10-11 01:43:00,62.0,59.0,29.97,SSE,167,0.0,0.0,91,0.00,,,0.00,,2013-10-11 06:43:00,
2013-10-11 01:52:00,62.0,60.0,29.96,SSE,167,0.0,0.0,92,0.00,,,0.00,,2013-10-11 06:52:00,
2013-10-11 02:11:00,62.0,60.0,29.97,SSE,167,0.0,0.0,92,0.00,,,0.00,,2013-10-11 07:11:00,
2013-10-11 02:22:00,62.0,60.0,29.96,SSE,167,0.0,0.0,94,0.00,,,0.00,,2013-10-11 07:22:00,
2013-10-11 02:42:00,62.0,60.0,29.96,SSE,167,0.0,0.0,94,0.00,,,0.00,,2013-10-11 07:42:00,
2013-10-11 02:52:00,62.0,60.0,29.96,SSE,167,0.0,0.0,94,0.00,,,0.00,,2013-10-11 07:52:00,
2013-10-11 03:11:00,62.0,60.0,29.96,SSE,167,0.0,0.0,94,0.00,,,0.00,,2013-10-11 08:11:00,
2013-10-11 03:22:00,62.0,61.0,29.96,SSE,167,0.0,0.0,95,0.00,,,0.00,,2013-10-11 08:22:00,
2013-10-11 03:42:00,62.0,61.0,29.96,SSE,167,0.0,0.0,95,0.00,,,0.00,,2013-10-11 08:42:00,
2013-10-11 03:52:00,62.0,61.0,29.96,SSE,167,0.0,0.0,95,0.00,,,0.00,,2013-10-11 08:52:00,
2013-10-11 04:12:00,62.0,61.0,29.97,SSE,167,0.0,0.0,95,0.00,,,0.00,,2013-10-11 09:12:00,
2013-10-11 04:22:00,62.0,61.0,29.97,SSE,167,0.0,0.0,95,0.00,,,0.00,,2013-10-11 09:22:00,
2013-10-11 04:43:00,61.0,60.0,29.97,SSE,167,0.0,0.0,95,0.00,,,0.00,,2013-10-11 09:43:00,
2013-10-11 04:53:00,61.0,60.0,29.97,SSE,167,0.0,0.0,95,0.00,,,0.00,,2013-10-11 09:53:00,
2013-10-11 05:12:00,61.0,60.0,29.97,SSE,167,0.0,0.0,95,0.00,,,0.00,,2013-10-11 10:12:00,
2013-10-11 05:23:00,61.0,60.0,29.98,SSE,167,0.0,0.0,95,0.00,,,0.00,,2013-10-11 10:23:00,
2013-10-11 05:42:00,61.0,60.0,29.98,SSE,167,0.0,0.0,95,0.00,,,0.00,,2013-10-11 10:42:00,
2013-10-11 05:53:00,61.0,60.0,29.98,SSE,167,0.0,0.0,95,0.00,,,0.00,,2013-10-11 10:53:00,
2013-10-11 06:12:00,61.0,60.0,29.99,SSE,167,0.0,0.0,95,0.00,,,0.00,,2013-10-11 11:12:00,
2013-10-11 06:22:00,61.0,60.0,30.00,SSE,167,0.0,0.0,96,0.00,,,0.00,,2013-10-11 11:22:00,
2013-10-11 06:52:00,62.0,61.0,30.01,SSE,167,0.0,0.0,96,0.00,,,0.00,,2013-10-11 11:52:00,
2013-10-11 07:11:00,62.0,61.0,30.00,SSE,167,0.0,0.0,96,0.00,,,0.00,,2013-10-11 12:11:00,
2013-10-11 07:22:00,62.0,61.0,30.01,SSE,148,1.0,3.0,96,0.00,,,0.00,,2013-10-11 12:22:00,
2013-10-11 07:42:00,63.0,62.0,30.00,SE,140,2.0,4.0,96,0.00,,,0.00,,2013-10-11 12:42:00,
2013-10-11 07:52:00,63.0,62.0,30.01,SE,146,3.0,6.0,97,0.00,,,0.00,,2013-10-11 12:52:00,
2013-10-11 08:12:00,63.0,62.0,30.01,SE,146,2.0,4.0,96,0.00,,,0.00,,2013-10-11 13:12:00,
2013-10-11 08:21:00,63.0,62.0,30.01,SSE,148,0.0,4.0,97,0.00,,,0.00,,2013-10-11 13:21:00,
2013-10-11 08:42:00,64.0,63.0,30.01,SSE,158,3.0,6.0,97,0.00,,,0.00,,2013-10-11 13:42:00,
2013-10-11 08:53:00,65.0,64.0,30.01,SE,138,6.0,8.0,97,0.00,,,0.00,,2013-10-11 13:53:00,
2013-10-11 09:11:00,65.0,64.0,30.02,SSE,153,5.0,7.0,97,0.00,,,0.00,,2013-10-11 14:11:00,
2013-10-11 09:22:00,66.0,65.0,30.03,SSE,166,5.0,8.0,97,0.00,,,0.00,,2013-10-11 14:22:00,
2013-10-11 09:42:00,66.0,65.0,30.03,SSE,149,1.0,6.0,97,0.00,,,0.00,,2013-10-11 14:42:00,
2013-10-11 09:52:00,67.0,66.0,30.03,SSE,150,2.0,5.0,97,0.00,,,0.00,,2013-10-11 14:52:00,
2013-10-11 10:11:00,67.0,66.0,30.03,SSE,160,2.0,7.0,97,0.00,,,0.00,,2013-10-11 15:11:00,
2013-10-11 10:22:00,67.0,66.0,30.03,SSE,155,5.0,7.0,97,0.00,,,0.00,,2013-10-11 15:22:00,
2013-10-11 10:44:00,67.0,66.0,30.04,SSE,148,2.0,6.0,97,0.00,,,0.00,,2013-10-11 15:44:00,
2013-10-11 10:53:00,68.0,67.0,30.03,SE,144,3.0,6.0,97,0.00,,,0.00,,2013-10-11 15:53:00,
2013-10-11 11:13:00,68.0,67.0,30.03,SSE,150,2.0,4.0,97,0.00,,,0.00,,2013-10-11 16:13:00,
2013-10-11 11:22:00,69.0,68.0,30.03,South,186,3.0,8.0,97,0.00,,,0.00,,2013-10-11 16:22:00,
2013-10-11 11:43:00,71.0,69.0,30.03,SSW,200,4.0,7.0,94,0.00,,,0.00,,2013-10-11 16:43:00,
2013-10-11 11:53:00,74.0,69.0,30.03,SSW,205,4.0,8.0,85,0.00,,,0.00,,2013-10-11 16:53:00,
2013-10-11 12:12:00,75.0,68.0,30.02,SW,232,4.0,7.0,78,0.00,,,0.00,,2013-10-11 17:12:00,
2013-10-11 12:22:00,77.0,67.0,30.02,SSE,155,5.0,10.0,72,0.00,,,0.00,,2013-10-11 17:22:00,
2013-10-11 12:43:00,78.0,66.0,30.01,SW,226,6.0,9.0,67,0.00,,,0.00,,2013-10-11 17:43:00,
2013-10-11 12:53:00,79.0,66.0,30.01,South,183,5.0,14.0,64,0.00,,,0.00,,2013-10-11 17:53:00,
2013-10-11 13:12:00,79.0,66.0,30.01,SW,221,5.0,10.0,64,0.00,,,0.00,,2013-10-11 18:12:00,
2013-10-11 13:22:00,80.0,66.0,30.00,South,190,7.0,13.0,62,0.00,,,0.00,,2013-10-11 18:22:00,
2013-10-11 13:43:00,81.0,66.0,29.99,SSE,153,5.0,11.0,60,0.00,,,0.00,,2013-10-11 18:43:00,
2013-10-11 13:52:00,81.0,65.0,29.98,SSE,167,2.0,10.0,59,0.00,,,0.00,,2013-10-11 18:52:00,
2013-10-11 14:11:00,81.0,65.0,29.97,SSW,197,7.0,11.0,59,0.00,,,0.00,,2013-10-11 19:11:00,
2013-10-11 14:22:00,82.0,66.0,29.96,South,171,4.0,12.0,59,0.00,,,0.00,,2013-10-11 19:22:00,
2013-10-11 14:42:00,82.0,65.0,29.96,South,182,8.0,14.0,57,0.00,,,0.00,,2013-10-11 19:42:00,
2013-10-11 14:52:00,83.0,66.0,29.96,SW,230,7.0,14.0,56,0.00,,,0.00,,2013-10-11 19:52:00,
2013-10-11 15:12:00,83.0,65.0,29.96,SSW,197,9.0,14.0,54,0.00,,,0.00,,2013-10-11 20:12:00,
2013-10-11 15:22:00,83.0,66.0,29.95,SW,225,4.0,12.0,56,0.00,,,0.00,,2013-10-11 20:22:00,
2013-10-11 15:42:00,83.0,65.0,29.95,South,185,5.0,9.0,54,0.00,,,0.00,,2013-10-11 20:42:00,
2013-10-11 15:53:00,84.0,65.0,29.95,SSW,210,6.0,10.0,53,0.00,,,0.00,,2013-10-11 20:53:00,
2013-10-11 16:12:00,84.0,65.0,29.94,South,178,5.0,13.0,53,0.00,,,0.00,,2013-10-11 21:12:00,
2013-10-11 16:22:00,84.0,65.0,29.94,SSE,163,2.0,7.0,53,0.00,,,0.00,,2013-10-11 21:22:00,
2013-10-11 16:43:00,83.0,64.0,29.94,SSE,159,4.0,12.0,53,0.00,,,0.00,,2013-10-11 21:43:00,
2013-10-11 16:54:00,82.0,64.0,29.93,South,177,5.0,8.0,55,0.00,,,0.00,,2013-10-11 21:54:00,
2013-10-11 17:13:00,82.0,64.0,29.93,SSE,157,3.0,8.0,55,0.00,,,0.00,,2013-10-11 22:13:00,
2013-10-11 17:24:00,82.0,65.0,29.93,SE,134,2.0,6.0,56,0.00,,,0.00,,2013-10-11 22:24:00,
2013-10-11 17:43:00,83.0,65.0,29.93,SSE,157,5.0,8.0,54,0.00,,,0.00,,2013-10-11 22:43:00,
2013-10-11 17:53:00,83.0,65.0,29.93,SSE,157,3.0,7.0,55,0.00,,,0.00,,2013-10-11 22:53:00,
2013-10-11 18:12:00,83.0,65.0,29.93,SE,136,4.0,7.0,54,0.00,,,0.00,,2013-10-11 23:12:00,
2013-10-11 18:22:00,82.0,65.0,29.93,SSE,148,2.0,5.0,56,0.00,,,0.00,,2013-10-11 23:22:00,
2013-10-11 18:42:00,82.0,65.0,29.93,SSE,153,1.0,3.0,57,0.00,,,0.00,,2013-10-11 23:42:00,
2013-10-11 18:53:00,81.0,65.0,29.93,SSE,153,0.0,2.0,58,0.00,,,0.00,,2013-10-11 23:53:00,
2013-10-11 19:12:00,80.0,65.0,29.93,SSE,153,0.0,2.0,60,0.00,,,0.00,,2013-10-12 00:12:00,
2013-10-11 19:22:00,78.0,64.0,29.93,SSE,153,0.0,1.0,63,0.00,,,0.00,,2013-10-12 00:22:00,
2013-10-11 19:42:00,78.0,65.0,29.93,SSE,153,0.0,1.0,65,0.00,,,0.00,,2013-10-12 00:42:00,
2013-10-11 19:52:00,77.0,65.0,29.93,SE,131,2.0,5.0,67,0.00,,,0.00,,2013-10-12 00:52:00,
2013-10-11 20:11:00,76.0,65.0,29.93,SE,130,3.0,4.0,69,0.00,,,0.00,,2013-10-12 01:11:00,
2013-10-11 20:22:00,75.0,65.0,29.93,ESE,123,1.0,5.0,70,0.00,,,0.00,,2013-10-12 01:22:00,
2013-10-11 20:42:00,75.0,65.0,29.93,ESE,123,0.0,3.0,71,0.00,,,0.00,,2013-10-12 01:42:00,
2013-10-11 20:52:00,74.0,64.0,29.94,SE,130,1.0,5.0,72,0.00,,,0.00,,2013-10-12 01:52:00,
2013-10-11 21:12:00,74.0,65.0,29.94,SE,136,0.0,3.0,73,0.00,,,0.00,,2013-10-12 02:12:00,
2013-10-11 21:23:00,73.0,64.0,29.95,SE,136,0.0,0.0,74,0.00,,,0.00,,2013-10-12 02:23:00,
2013-10-11 21:42:00,73.0,65.0,29.95,ESE,123,0.0,4.0,76,0.00,,,0.00,,2013-10-12 02:42:00,
2013-10-11 21:52:00,72.0,64.0,29.96,ESE,123,1.0,2.0,77,0.00,,,0.00,,2013-10-12 02:52:00,
2013-10-11 22:12:00,72.0,65.0,29.96,ESE,123,0.0,2.0,78,0.00,,,0.00,,2013-10-12 03:12:00,
2013-10-11 22:23:00,72.0,65.0,29.96,ESE,123,0.0,1.0,78,0.00,,,0.00,,2013-10-12 03:23:00,
2013-10-11 22:44:00,72.0,65.0,29.96,ESE,123,0.0,2.0,79,0.00,,,0.00,,2013-10-12 03:44:00,
2013-10-11 22:54:00,72.0,65.0,29.96,ESE,123,0.0,2.0,79,0.00,,,0.00,,2013-10-12 03:54:00,
2013-10-11 23:14:00,72.0,65.0,29.96,ESE,119,2.0,4.0,79,0.00,,,0.00,,2013-10-12 04:14:00,
2013-10-11 23:24:00,72.0,65.0,29.96,ESE,118,2.0,3.0,80,0.00,,,0.00,,2013-10-12 04:24:00,
2013-10-11 23:44:00,71.0,65.0,29.96,ESE,120,0.0,3.0,80,0.00,,,0.00,,2013-10-12 04:44:00,
2013-10-11 23:54:00,71.0,65.0,29.96,ESE,120,0.0,2.0,82,0.00,,,0.00,,2013-10-12 04:54:00,